Time;durP1;ratioP1;P1;durP2;ratioP2;P2;SDS_P1;SDS_P2;PMS_P1;PMS_P2;Temp;Humidity;BMP_temperature;BMP_pressure;BME280_temperature;BME280_humidity;BME280_pressure;Samples;Min_cycle;Max_cycle;Signal;HPM_P1;HPM_P2
2021/06/07 00:01:58;;;;;;;8.48;5.63;;;10.90;99.90;;;;;;5018837;28;20451;-66
2021/06/07 00:04:26;;;;;;;6.40;5.77;;;10.90;99.90;;;;;;5020126;28;20102;-66
2021/06/07 00:06:55;;;;;;;5.15;4.63;;;10.90;99.90;;;;;;5018491;28;22342;-66
2021/06/07 00:09:23;;;;;;;7.28;6.07;;;10.90;99.90;;;;;;5021568;28;20123;-66
2021/06/07 00:11:57;;;;;;;14.82;5.22;;;10.90;99.90;;;;;;5016834;28;20073;-66
2021/06/07 00:14:31;;;;;;;5.90;4.93;;;10.80;99.90;;;;;;5021029;28;20038;-66
2021/06/07 00:16:58;;;;;;;6.03;5.43;;;10.80;99.90;;;;;;5020701;28;20057;-66
2021/06/07 00:19:28;;;;;;;7.97;5.55;;;10.70;99.90;;;;;;5020860;28;20115;-65
2021/06/07 00:21:56;;;;;;;6.47;5.47;;;10.70;99.90;;;;;;5016961;28;20080;-66
2021/06/07 00:24:24;;;;;;;8.80;5.22;;;10.70;99.90;;;;;;5017820;28;20107;-66
2021/06/07 00:26:51;;;;;;;5.88;5.28;;;10.70;99.90;;;;;;5017269;28;20165;-66
2021/06/07 00:29:18;;;;;;;5.15;4.68;;;10.70;99.90;;;;;;5016230;28;20663;-65
2021/06/07 00:31:45;;;;;;;10.48;6.45;;;10.70;99.90;;;;;;5028127;28;20049;-66
2021/06/07 00:34:13;;;;;;;6.53;5.93;;;10.60;99.90;;;;;;5016616;28;20490;-66
2021/06/07 00:36:40;;;;;;;10.15;6.47;;;10.60;99.90;;;;;;5014225;28;20656;-66
2021/06/07 00:39:12;;;;;;;8.57;6.38;;;10.60;99.90;;;;;;5016039;28;20200;-66
2021/06/07 00:41:40;;;;;;;6.65;6.05;;;10.60;99.90;;;;;;5015655;28;20134;-66
2021/06/07 00:44:10;;;;;;;6.90;6.07;;;10.60;99.90;;;;;;5016266;28;20057;-66
2021/06/07 00:46:38;;;;;;;6.28;5.47;;;10.60;99.90;;;;;;5016727;28;20123;-66
2021/06/07 00:49:08;;;;;;;5.95;5.35;;;10.50;99.90;;;;;;5016298;28;20049;-66
2021/06/07 00:51:35;;;;;;;6.30;5.70;;;10.50;99.90;;;;;;5017124;28;20049;-65
2021/06/07 00:54:04;;;;;;;7.35;5.78;;;10.50;99.90;;;;;;5014611;28;20593;-66
2021/06/07 00:56:31;;;;;;;7.40;4.93;;;10.50;99.90;;;;;;5018648;28;20049;-66
2021/06/07 00:58:58;;;;;;;5.70;5.22;;;10.40;99.90;;;;;;5015842;28;20154;-65
2021/06/07 01:01:27;;;;;;;5.47;5.03;;;10.40;99.90;;;;;;5018478;28;26419;-65
2021/06/07 01:03:57;;;;;;;8.90;5.85;;;10.40;99.90;;;;;;5015921;28;20139;-65
2021/06/07 01:06:24;;;;;;;6.20;5.60;;;10.40;99.90;;;;;;5019213;28;20152;-66
2021/06/07 01:08:52;;;;;;;7.00;4.80;;;10.40;99.90;;;;;;5017902;28;20077;-66
2021/06/07 01:11:21;;;;;;;7.03;5.93;;;10.40;99.90;;;;;;5019792;28;20057;-66
2021/06/07 01:13:48;;;;;;;6.30;5.75;;;10.40;99.90;;;;;;5016803;28;20113;-66
2021/06/07 01:16:15;;;;;;;5.82;5.20;;;10.40;99.90;;;;;;5019221;28;20094;-65
2021/06/07 01:18:43;;;;;;;6.22;5.65;;;10.30;99.90;;;;;;5019282;28;20511;-68
2021/06/07 01:21:16;;;;;;;6.60;5.95;;;10.30;99.90;;;;;;5019068;28;20073;-68
2021/06/07 01:23:45;;;;;;;6.43;5.82;;;10.30;99.90;;;;;;5015933;28;20049;-68
2021/06/07 01:26:14;;;;;;;5.25;4.80;;;10.20;99.90;;;;;;5018932;28;20110;-68
2021/06/07 01:28:42;;;;;;;6.75;6.13;;;10.20;99.90;;;;;;5015620;28;20160;-68
2021/06/07 01:31:11;;;;;;;6.63;5.90;;;10.20;99.90;;;;;;5016578;28;20148;-68
2021/06/07 01:33:45;;;;;;;7.07;6.30;;;10.20;99.90;;;;;;5014321;28;20408;-68
2021/06/07 01:36:12;;;;;;;6.65;5.63;;;10.10;99.90;;;;;;5012662;28;20183;-68
2021/06/07 01:38:40;;;;;;;6.32;5.72;;;10.10;99.90;;;;;;5013454;28;20136;-68
2021/06/07 01:41:10;;;;;;;5.53;5.13;;;10.10;99.90;;;;;;5014516;28;20084;-68
2021/06/07 01:43:38;;;;;;;6.53;5.78;;;10.10;99.90;;;;;;5011008;28;20046;-68
2021/06/07 01:46:06;;;;;;;6.43;5.72;;;10.00;99.90;;;;;;5012521;28;20577;-68
2021/06/07 01:48:33;;;;;;;7.53;6.93;;;10.00;99.90;;;;;;5016257;28;20144;-68
2021/06/07 01:51:02;;;;;;;6.38;5.78;;;10.00;99.90;;;;;;5020022;28;20184;-68
2021/06/07 01:53:30;;;;;;;6.70;5.75;;;10.00;99.90;;;;;;5014547;28;20089;-68
2021/06/07 01:56:01;;;;;;;5.95;5.35;;;9.90;99.90;;;;;;5019641;28;20138;-68
2021/06/07 01:58:29;;;;;;;9.20;5.88;;;9.90;99.90;;;;;;5016742;28;20053;-68
2021/06/07 02:00:57;;;;;;;6.20;5.60;;;9.90;99.90;;;;;;5020437;28;20339;-68
2021/06/07 02:03:25;;;;;;;6.90;5.63;;;9.80;99.90;;;;;;5018261;28;20064;-68
2021/06/07 02:05:55;;;;;;;7.03;6.15;;;9.80;99.90;;;;;;5017202;28;20037;-68
2021/06/07 02:08:22;;;;;;;;;;;9.80;99.90;;;;;;5018352;28;20160;-68
2021/06/07 02:10:53;;;;;;;6.10;5.45;;;9.80;99.90;;;;;;5018603;28;20027;-68
2021/06/07 02:13:21;;;;;;;6.43;5.80;;;9.70;99.90;;;;;;5019749;28;20728;-68
2021/06/07 02:15:53;;;;;;;6.25;5.65;;;9.70;99.90;;;;;;5015991;28;20461;-68
2021/06/07 02:18:20;;;;;;;7.25;6.55;;;9.70;99.90;;;;;;5018871;28;20091;-68
2021/06/07 02:20:47;;;;;;;6.88;6.28;;;9.70;99.90;;;;;;5017827;28;20506;-68
2021/06/07 02:23:14;;;;;;;7.82;6.20;;;9.70;99.90;;;;;;5018068;28;20057;-68
2021/06/07 02:25:41;;;;;;;7.75;5.97;;;9.70;99.90;;;;;;5017084;28;20045;-68
2021/06/07 02:28:16;;;;;;;5.93;5.38;;;9.70;99.90;;;;;;5018022;28;20454;-68
2021/06/07 02:30:44;;;;;;;7.40;6.30;;;9.80;99.90;;;;;;5018853;28;20107;-68
2021/06/07 02:33:11;;;;;;;6.85;6.20;;;9.80;99.90;;;;;;5018727;28;20069;-66
2021/06/07 02:35:38;;;;;;;7.93;6.35;;;9.80;99.90;;;;;;5016728;28;20140;-65
2021/06/07 02:38:06;;;;;;;6.10;5.60;;;9.80;99.90;;;;;;5017832;28;20325;-65
2021/06/07 02:40:36;;;;;;;5.63;4.90;;;9.80;99.90;;;;;;5016844;28;20057;-65
2021/06/07 02:43:05;;;;;;;5.88;5.30;;;9.80;99.90;;;;;;5017216;28;20045;-65
2021/06/07 02:45:33;;;;;;;7.45;5.30;;;9.80;99.90;;;;;;5016773;28;20146;-65
2021/06/07 02:48:01;;;;;;;6.30;5.30;;;9.80;99.90;;;;;;5015719;28;21494;-65
2021/06/07 02:50:31;;;;;;;8.65;6.82;;;9.80;99.90;;;;;;5017696;28;20136;-65
2021/06/07 02:52:58;;;;;;;11.85;7.57;;;9.80;99.90;;;;;;5017055;28;20060;-65
2021/06/07 02:55:42;;;;;;;6.65;6.00;;;9.80;99.90;;;;;;5017626;28;20091;-65
2021/06/07 02:58:10;;;;;;;6.97;5.57;;;9.80;99.90;;;;;;5016654;28;20107;-65
2021/06/07 03:00:37;;;;;;;6.05;5.47;;;9.80;99.90;;;;;;5017761;28;20042;-65
2021/06/07 03:03:06;;;;;;;8.25;5.85;;;9.90;99.90;;;;;;5017581;28;20046;-65
2021/06/07 03:05:34;;;;;;;6.82;6.03;;;9.90;99.90;;;;;;5016488;28;20045;-65
2021/06/07 03:08:02;;;;;;;6.10;5.60;;;9.90;99.90;;;;;;5016538;28;20531;-65
2021/06/07 03:10:30;;;;;;;7.63;5.75;;;10.00;99.90;;;;;;5018506;28;20064;-65
2021/06/07 03:12:58;;;;;;;6.10;5.47;;;10.00;99.90;;;;;;5016597;28;20353;-65
2021/06/07 03:15:25;;;;;;;6.80;6.10;;;10.00;99.90;;;;;;5017295;28;20113;-66
2021/06/07 03:17:53;;;;;;;6.78;6.07;;;10.00;99.90;;;;;;5016798;28;20222;-66
2021/06/07 03:20:25;;;;;;;6.55;6.00;;;10.10;99.90;;;;;;5017431;28;20065;-65
2021/06/07 03:22:55;;;;;;;7.53;6.50;;;10.10;99.90;;;;;;5019117;28;20057;-65
2021/06/07 03:25:22;;;;;;;6.38;5.70;;;10.20;99.90;;;;;;5022074;28;20140;-65
2021/06/07 03:27:50;;;;;;;6.15;5.55;;;10.20;99.90;;;;;;5019626;28;21542;-65
2021/06/07 03:30:18;;;;;;;6.05;5.47;;;10.30;99.90;;;;;;5021262;28;20049;-65
2021/06/07 03:32:45;;;;;;;6.47;5.85;;;10.30;99.90;;;;;;5020749;28;20049;-65
2021/06/07 03:35:17;;;;;;;6.82;6.20;;;10.40;99.90;;;;;;5021581;28;20045;-65
2021/06/07 03:37:44;;;;;;;6.85;6.25;;;10.50;99.90;;;;;;5019482;28;20134;-65
2021/06/07 03:40:15;;;;;;;5.85;5.00;;;10.50;99.90;;;;;;5019187;28;20132;-65
2021/06/07 03:42:42;;;;;;;;;;;10.60;99.90;;;;;;5020943;28;20460;-65
2021/06/07 03:45:10;;;;;;;6.63;5.57;;;10.70;99.90;;;;;;5019866;28;19924;-65
2021/06/07 03:47:37;;;;;;;7.80;6.03;;;10.70;99.90;;;;;;5020072;28;20588;-65
2021/06/07 03:50:06;;;;;;;11.23;5.72;;;10.80;99.90;;;;;;5018241;28;20126;-65
2021/06/07 03:52:33;;;;;;;6.40;5.30;;;10.90;99.90;;;;;;5018800;28;20051;-65
2021/06/07 03:55:02;;;;;;;6.13;5.38;;;10.90;99.90;;;;;;5017017;28;20611;-65
2021/06/07 03:57:29;;;;;;;7.07;5.45;;;11.00;99.90;;;;;;5019135;28;20045;-65
2021/06/07 03:59:56;;;;;;;5.15;4.75;;;11.20;99.90;;;;;;5017230;28;20151;-66
2021/06/07 04:02:23;;;;;;;6.28;5.75;;;11.30;99.90;;;;;;5011712;28;20054;-65
2021/06/07 04:04:50;;;;;;;5.70;4.70;;;11.40;99.90;;;;;;5014478;28;20095;-65
2021/06/07 04:07:18;;;;;;;6.13;5.53;;;11.50;99.90;;;;;;5017650;28;20084;-65
2021/06/07 04:09:45;;;;;;;7.93;5.53;;;11.60;99.90;;;;;;5017357;28;20144;-65
2021/06/07 04:12:12;;;;;;;6.78;5.55;;;11.80;99.90;;;;;;5020087;28;20046;-68
2021/06/07 04:14:39;;;;;;;6.03;4.75;;;11.90;99.90;;;;;;5018655;28;20212;-65
2021/06/07 04:17:08;;;;;;;3.83;3.45;;;12.00;99.90;;;;;;5020354;28;20045;-65
2021/06/07 04:19:35;;;;;;;6.43;3.42;;;12.10;99.90;;;;;;5017146;28;20077;-65
2021/06/07 04:22:03;;;;;;;7.55;4.20;;;12.20;99.90;;;;;;5018887;28;20986;-65
2021/06/07 04:24:30;;;;;;;5.93;3.78;;;12.40;99.90;;;;;;5019153;28;20053;-65
2021/06/07 04:26:57;;;;;;;6.63;4.13;;;12.50;99.90;;;;;;5020312;28;20717;-66
2021/06/07 04:29:24;;;;;;;4.38;3.97;;;12.60;99.90;;;;;;5018924;28;20137;-66
2021/06/07 04:31:51;;;;;;;5.78;3.92;;;12.70;99.90;;;;;;5017855;28;20049;-65
2021/06/07 04:34:18;;;;;;;3.75;3.30;;;12.80;99.90;;;;;;5017851;28;20060;-65
2021/06/07 04:36:45;;;;;;;4.75;3.40;;;12.90;99.90;;;;;;5019655;28;20076;-66
2021/06/07 04:39:12;;;;;;;5.25;3.40;;;13.00;99.90;;;;;;5019256;28;20057;-66
2021/06/07 04:41:39;;;;;;;8.50;3.55;;;13.10;99.90;;;;;;5018445;28;20119;-66
2021/06/07 04:44:06;;;;;;;7.50;3.17;;;13.20;99.90;;;;;;5018537;28;20107;-65
2021/06/07 04:46:33;;;;;;;8.32;3.80;;;13.30;99.90;;;;;;5018448;28;20115;-66
2021/06/07 04:49:00;;;;;;;4.18;2.78;;;13.40;99.90;;;;;;5018915;28;20045;-65
2021/06/07 04:51:27;;;;;;;5.97;2.67;;;13.50;99.90;;;;;;5019822;28;20115;-66
2021/06/07 04:53:54;;;;;;;5.28;3.75;;;13.60;99.90;;;;;;5014799;28;20731;-65
2021/06/07 04:56:21;;;;;;;12.30;3.22;;;13.70;99.90;;;;;;5019433;28;20180;-65
2021/06/07 04:58:48;;;;;;;8.18;4.15;;;13.80;98.70;;;;;;5018801;28;20136;-65
2021/06/07 05:01:16;;;;;;;6.38;3.92;;;13.90;99.10;;;;;;5018459;28;20704;-65
2021/06/07 05:03:44;;;;;;;6.15;3.08;;;14.10;98.20;;;;;;5015540;28;20045;-65
2021/06/07 05:06:11;;;;;;;3.88;3.40;;;14.10;96.30;;;;;;5019064;28;20137;-65
2021/06/07 05:08:38;;;;;;;10.63;4.47;;;14.30;96.30;;;;;;5017504;28;20050;-65
2021/06/07 05:11:05;;;;;;;8.18;3.03;;;14.50;96.60;;;;;;5019500;28;20138;-65
2021/06/07 05:13:32;;;;;;;5.38;2.40;;;14.80;95.90;;;;;;5015727;28;20084;-65
2021/06/07 05:16:00;;;;;;;6.20;3.33;;;14.80;95.60;;;;;;5018061;28;20144;-65
2021/06/07 05:18:28;;;;;;;2.67;2.03;;;14.90;95.40;;;;;;5014520;28;20130;-65
2021/06/07 05:20:55;;;;;;;4.40;3.55;;;15.10;94.00;;;;;;5018440;28;20057;-65
2021/06/07 05:23:22;;;;;;;7.78;2.53;;;15.10;93.80;;;;;;5016328;28;20037;-65
2021/06/07 05:25:49;;;;;;;6.53;2.90;;;15.20;93.20;;;;;;5017159;28;20114;-65
2021/06/07 05:28:18;;;;;;;5.45;3.13;;;15.30;93.00;;;;;;5015034;28;20783;-65
2021/06/07 05:30:47;;;;;;;13.02;3.88;;;15.40;93.70;;;;;;5018031;28;20474;-65
2021/06/07 05:33:14;;;;;;;2.53;2.33;;;15.70;92.70;;;;;;5016099;28;20679;-65
2021/06/07 05:35:44;;;;;;;5.70;3.03;;;15.80;92.10;;;;;;5015613;28;20668;-65
2021/06/07 05:38:13;;;;;;;6.60;3.33;;;16.00;91.90;;;;;;5016012;28;20459;-65
2021/06/07 05:40:40;;;;;;;3.50;2.97;;;16.10;91.90;;;;;;5018562;28;20080;-65
2021/06/07 05:43:07;;;;;;;4.00;2.50;;;16.20;91.30;;;;;;5013894;28;20439;-65
2021/06/07 05:45:35;;;;;;;4.13;3.25;;;16.20;91.40;;;;;;5015276;28;20053;-65
2021/06/07 05:48:03;;;;;;;3.28;2.78;;;16.20;91.20;;;;;;5013511;28;20075;-65
2021/06/07 05:50:32;;;;;;;2.72;2.20;;;16.20;90.80;;;;;;5016098;28;20427;-65
2021/06/07 05:53:00;;;;;;;3.63;2.85;;;16.20;90.80;;;;;;5011313;28;20053;-65
2021/06/07 05:55:30;;;;;;;5.18;2.60;;;16.20;90.90;;;;;;5015272;28;20132;-65
2021/06/07 05:58:00;;;;;;;3.72;2.47;;;16.30;91.10;;;;;;5014735;28;20131;-65
2021/06/07 06:00:31;;;;;;;7.95;2.83;;;16.40;89.60;;;;;;5014350;28;20080;-65
2021/06/07 06:02:58;;;;;;;3.65;2.50;;;16.60;90.70;;;;;;5017035;28;20064;-65
2021/06/07 06:05:43;;;;;;;2.12;1.93;;;16.60;90.40;;;;;;4134747;28;10001957;-65
2021/06/07 06:08:11;;;;;;;2.78;2.58;;;16.60;90.90;;;;;;2417985;28;10002414;-65
2021/06/07 06:10:39;;;;;;;3.50;2.35;;;16.60;91.00;;;;;;5017365;28;20057;-65
2021/06/07 06:13:26;;;;;;;6.85;2.50;;;16.60;91.10;;;;;;5013618;28;20061;-65
2021/06/07 06:15:53;;;;;;;3.90;2.17;;;16.90;90.00;;;;;;5013679;28;20117;-65
2021/06/07 06:18:20;;;;;;;3.33;2.70;;;16.90;89.90;;;;;;5015631;28;20060;-65
2021/06/07 06:20:46;;;;;;;3.17;2.88;;;16.90;89.60;;;;;;5016014;28;20073;-65
2021/06/07 06:23:13;;;;;;;4.05;3.25;;;17.00;90.00;;;;;;5015935;28;20132;-65
2021/06/07 06:25:40;;;;;;;4.90;2.65;;;17.00;88.80;;;;;;5015010;28;20450;-65
2021/06/07 06:28:11;;;;;;;2.67;2.47;;;17.00;88.60;;;;;;5015891;28;20055;-65
2021/06/07 06:30:38;;;;;;;2.55;2.35;;;17.00;87.90;;;;;;5016895;28;20072;-65
2021/06/07 06:33:05;;;;;;;2.28;2.08;;;17.10;88.40;;;;;;5015498;28;20056;-65
2021/06/07 06:35:32;;;;;;;6.30;2.97;;;17.20;87.30;;;;;;5015269;28;20164;-65
2021/06/07 06:38:00;;;;;;;2.60;2.40;;;17.30;88.30;;;;;;5015713;28;20072;-65
2021/06/07 06:40:31;;;;;;;2.90;2.70;;;17.30;88.10;;;;;;5015535;28;20077;-65
2021/06/07 06:42:59;;;;;;;;;;;17.50;88.40;;;;;;5015972;28;20705;-65
2021/06/07 06:45:27;;;;;;;2.15;1.85;;;17.60;89.10;;;;;;5016997;28;20291;-65
2021/06/07 06:47:58;;;;;;;2.53;2.33;;;17.90;87.50;;;;;;5013692;28;20275;-65
2021/06/07 06:50:27;;;;;;;3.50;2.60;;;17.90;87.10;;;;;;5015414;28;20123;-65
2021/06/07 06:52:54;;;;;;;2.45;2.25;;;17.90;87.30;;;;;;5014292;28;20152;-65
2021/06/07 06:55:21;;;;;;;2.15;2.03;;;18.10;88.10;;;;;;5012055;28;20077;-65
2021/06/07 06:57:48;;;;;;;4.82;2.40;;;18.20;87.00;;;;;;5016157;28;20085;-65
2021/06/07 07:00:16;;;;;;;3.33;2.28;;;18.30;86.10;;;;;;5019608;28;20050;-65
2021/06/07 07:02:43;;;;;;;2.50;2.30;;;18.30;84.60;;;;;;5017949;28;20124;-65
2021/06/07 07:05:10;;;;;;;2.45;2.25;;;18.20;84.60;;;;;;5019930;28;20474;-65
2021/06/07 07:07:37;;;;;;;3.33;2.33;;;18.20;84.30;;;;;;5017747;28;20038;-65
2021/06/07 07:10:06;;;;;;;2.95;2.20;;;18.20;84.70;;;;;;5018822;28;20136;-66
2021/06/07 07:12:33;;;;;;;2.45;2.25;;;18.30;85.10;;;;;;5018079;28;20073;-65
2021/06/07 07:15:01;;;;;;;3.28;3.08;;;18.40;85.80;;;;;;5018987;28;20760;-65
2021/06/07 07:17:28;;;;;;;3.80;2.65;;;18.50;85.00;;;;;;5016454;28;20053;-65
2021/06/07 07:19:56;;;;;;;4.07;2.72;;;18.50;84.20;;;;;;5018261;28;20057;-65
2021/06/07 07:22:23;;;;;;;5.93;2.10;;;18.50;83.80;;;;;;5020120;28;20119;-65
2021/06/07 07:24:50;;;;;;;3.13;2.67;;;18.60;83.20;;;;;;5019979;28;20544;-65
2021/06/07 07:27:19;;;;;;;1.95;1.85;;;18.70;81.50;;;;;;5019283;28;20139;-65
2021/06/07 07:29:47;;;;;;;2.70;1.98;;;18.80;81.90;;;;;;5018622;28;20088;-65
2021/06/07 07:32:15;;;;;;;2.38;1.95;;;18.80;81.80;;;;;;5019187;28;20600;-65
2021/06/07 07:34:46;;;;;;;4.07;2.10;;;18.90;81.60;;;;;;5019191;28;20100;-65
2021/06/07 07:37:13;;;;;;;2.28;2.00;;;19.00;76.40;;;;;;5017618;28;21441;-65
2021/06/07 07:39:40;;;;;;;2.13;2.03;;;19.00;77.90;;;;;;5018939;28;20140;-65
2021/06/07 07:42:07;;;;;;;1.90;1.55;;;19.20;78.00;;;;;;5016870;28;20100;-65
2021/06/07 07:44:36;;;;;;;2.90;2.03;;;19.20;77.40;;;;;;5019661;28;20164;-65
2021/06/07 07:47:06;;;;;;;3.30;1.80;;;19.20;78.40;;;;;;5018750;28;20123;-65
2021/06/07 07:49:34;;;;;;;;;;;19.30;79.20;;;;;;5018860;28;20091;-65
2021/06/07 07:52:02;;;;;;;5.50;2.10;;;19.30;79.40;;;;;;5017111;28;20382;-65
2021/06/07 07:54:31;;;;;;;2.58;1.88;;;19.50;80.20;;;;;;5019937;28;20080;-65
2021/06/07 07:56:59;;;;;;;1.90;1.67;;;19.50;79.90;;;;;;5016569;28;20046;-65
2021/06/07 07:59:26;;;;;;;3.28;2.00;;;19.60;79.00;;;;;;5016911;28;20046;-65
2021/06/07 08:01:53;;;;;;;2.88;2.30;;;19.60;79.10;;;;;;5016009;28;20065;-65
2021/06/07 08:04:20;;;;;;;3.88;1.90;;;19.50;78.70;;;;;;5018235;28;20055;-65
2021/06/07 08:06:47;;;;;;;2.13;2.00;;;19.60;79.70;;;;;;5016085;28;20792;-65
2021/06/07 08:09:14;;;;;;;2.75;1.75;;;19.60;78.00;;;;;;5018605;28;20164;-65
2021/06/07 08:11:41;;;;;;;10.57;3.25;;;19.60;78.80;;;;;;5015733;28;20046;-65
2021/06/07 08:14:08;;;;;;;3.08;2.30;;;19.50;78.40;;;;;;5018933;28;20308;-65
2021/06/07 08:16:35;;;;;;;2.03;1.85;;;19.50;79.60;;;;;;5016532;28;20072;-65
2021/06/07 08:19:02;;;;;;;2.20;1.85;;;19.40;78.90;;;;;;5019118;28;20050;-65
2021/06/07 08:21:29;;;;;;;2.13;1.77;;;19.30;78.70;;;;;;5014574;28;21478;-65
2021/06/07 08:23:56;;;;;;;3.15;2.15;;;19.30;78.80;;;;;;5018635;28;20045;-65
2021/06/07 08:26:23;;;;;;;2.20;1.83;;;19.30;79.20;;;;;;5017492;28;20053;-65
2021/06/07 08:28:50;;;;;;;3.83;2.50;;;19.30;79.00;;;;;;5018405;28;20041;-65
2021/06/07 08:31:17;;;;;;;2.95;2.15;;;19.20;80.10;;;;;;5016743;28;21972;-64
2021/06/07 08:33:44;;;;;;;3.03;2.80;;;19.20;78.90;;;;;;5018352;28;20091;-65
2021/06/07 08:36:11;;;;;;;3.47;2.55;;;19.10;79.20;;;;;;5017738;28;20130;-65
2021/06/07 08:38:41;;;;;;;2.30;2.05;;;19.10;79.80;;;;;;5018436;28;20049;-65
2021/06/07 08:41:09;;;;;;;2.22;2.05;;;19.20;80.30;;;;;;5018106;28;20046;-65
2021/06/07 08:43:36;;;;;;;3.35;2.30;;;19.20;80.30;;;;;;5017573;28;20106;-65
2021/06/07 08:46:20;;;;;;;5.22;2.72;;;19.20;80.20;;;;;;5047862;28;20176;-65
2021/06/07 08:48:47;;;;;;;4.60;1.80;;;19.20;78.90;;;;;;5019603;28;20073;-65
2021/06/07 08:51:15;;;;;;;3.25;2.22;;;19.30;79.50;;;;;;5017392;28;20106;-65
2021/06/07 08:53:42;;;;;;;2.63;2.05;;;19.40;78.50;;;;;;5016537;28;20411;-65
2021/06/07 08:56:09;;;;;;;2.17;1.98;;;19.20;80.20;;;;;;5017131;28;20076;-65
2021/06/07 08:58:36;;;;;;;2.17;1.92;;;19.30;80.10;;;;;;5018357;28;20096;-65
2021/06/07 09:01:03;;;;;;;5.78;2.22;;;19.20;81.80;;;;;;5016268;28;20144;-65
2021/06/07 09:03:33;;;;;;;3.63;2.90;;;19.40;83.10;;;;;;5013981;28;20049;-65
2021/06/07 09:06:02;;;;;;;4.23;2.80;;;19.40;85.40;;;;;;5017291;28;20055;-65
2021/06/07 09:08:37;;;;;;;4.72;2.90;;;19.30;85.60;;;;;;5014261;28;20065;-64
2021/06/07 09:11:22;;;;;;;4.32;2.97;;;19.40;87.30;;;;;;5017511;28;20056;-65
2021/06/07 09:13:49;;;;;;;3.97;2.95;;;19.40;85.20;;;;;;5015947;28;20072;-65
2021/06/07 09:16:16;;;;;;;2.90;2.30;;;19.30;86.70;;;;;;5015929;28;20114;-65
2021/06/07 09:18:48;;;;;;;4.85;2.60;;;19.30;86.00;;;;;;5017236;28;20045;-65
2021/06/07 09:21:23;;;;;;;4.22;2.30;;;19.20;85.30;;;;;;5016581;28;20052;-65
2021/06/07 09:23:54;;;;;;;4.05;2.72;;;19.20;86.80;;;;;;5015383;28;20053;-65
2021/06/07 09:26:28;;;;;;;3.47;3.17;;;19.30;80.70;;;;;;5017103;28;20736;-65
2021/06/07 09:28:58;;;;;;;4.88;2.53;;;19.40;82.50;;;;;;5016745;28;21539;-67
2021/06/07 09:31:30;;;;;;;2.78;2.25;;;19.60;81.70;;;;;;5018282;28;20061;-65
2021/06/07 09:34:01;;;;;;;4.40;2.88;;;19.60;82.30;;;;;;5016399;28;20050;-65
2021/06/07 09:36:41;;;;;;;4.38;2.90;;;19.80;81.80;;;;;;5017521;28;20558;-65
2021/06/07 09:39:25;;;;;;;3.88;2.10;;;19.80;80.10;;;;;;5017828;28;20135;-65
2021/06/07 09:42:23;;;;;;;4.97;2.35;;;19.70;79.50;;;;;;5017246;28;20407;-65
2021/06/07 09:44:52;;;;;;;2.13;1.95;;;19.80;79.90;;;;;;5016554;28;20121;-65
2021/06/07 09:47:19;;;;;;;2.38;2.10;;;19.80;79.80;;;;;;5018975;28;20179;-65
2021/06/07 09:50:08;;;;;;;2.50;2.28;;;20.00;80.60;;;;;;5013648;28;20061;-65
2021/06/07 09:52:45;;;;;;;3.67;2.00;;;19.90;79.50;;;;;;5016638;28;20049;-65
2021/06/07 09:55:22;;;;;;;3.42;2.05;;;20.10;77.10;;;;;;5017640;28;20049;-65
2021/06/07 09:58:01;;;;;;;3.47;1.75;;;20.20;77.60;;;;;;5014291;28;21267;-64
2021/06/07 10:00:32;;;;;;;3.15;1.90;;;20.20;75.90;;;;;;5018646;28;20063;-65
2021/06/07 10:03:20;;;;;;;2.33;1.67;;;20.20;76.20;;;;;;5015993;28;20574;-65
2021/06/07 10:05:52;;;;;;;3.97;1.70;;;20.40;79.20;;;;;;5014442;28;20071;-65
2021/06/07 10:08:22;;;;;;;2.67;2.22;;;20.50;78.00;;;;;;5013532;28;20060;-65
2021/06/07 10:10:51;;;;;;;3.60;1.65;;;20.70;77.60;;;;;;5017969;28;20064;-65
2021/06/07 10:13:18;;;;;;;2.42;1.98;;;20.60;75.00;;;;;;5015741;28;20368;-65
2021/06/07 10:15:50;;;;;;;2.65;2.30;;;20.60;74.20;;;;;;5015867;28;20167;-65
2021/06/07 10:18:19;;;;;;;2.55;1.80;;;20.60;75.30;;;;;;5015823;28;20060;-65
2021/06/07 10:20:49;;;;;;;5.70;1.70;;;20.70;77.30;;;;;;5031871;28;20126;-64
2021/06/07 10:23:31;;;;;;;2.22;2.03;;;20.60;77.80;;;;;;5014019;28;20053;-65
2021/06/07 10:26:01;;;;;;;3.50;2.08;;;20.50;78.30;;;;;;5016518;28;20403;-65
2021/06/07 10:28:37;;;;;;;1.70;1.60;;;20.40;78.00;;;;;;5014790;28;20541;-65
2021/06/07 10:31:13;;;;;;;2.83;2.42;;;20.30;78.40;;;;;;5014764;28;20076;-65
2021/06/07 10:33:42;;;;;;;3.28;2.15;;;20.30;80.20;;;;;;5014435;28;20953;-65
2021/06/07 10:36:22;;;;;;;3.10;2.22;;;20.20;80.40;;;;;;5017444;28;20060;-65
2021/06/07 10:38:54;;;;;;;4.70;2.80;;;20.10;82.10;;;;;;5016779;28;20127;-65
2021/06/07 10:41:29;;;;;;;5.75;3.22;;;20.00;83.10;;;;;;5016438;28;20806;-65
2021/06/07 10:43:58;;;;;;;3.22;2.28;;;19.90;83.40;;;;;;5015623;28;20053;-65
2021/06/07 10:46:31;;;;;;;1.60;1.50;;;19.90;86.80;;;;;;5016670;28;20084;-65
2021/06/07 10:48:59;;;;;;;4.38;2.22;;;19.90;83.50;;;;;;5017245;28;20110;-65
2021/06/07 10:51:30;;;;;;;5.03;2.35;;;20.00;84.70;;;;;;5015855;28;20132;-65
2021/06/07 10:54:29;;;;;;;2.67;2.35;;;20.00;85.70;;;;;;5015297;28;20219;-65
2021/06/07 10:57:22;;;;;;;3.88;2.35;;;20.00;81.60;;;;;;5015250;28;20088;-65
2021/06/07 10:59:51;;;;;;;4.88;2.80;;;20.30;81.70;;;;;;5016802;28;20073;-65
2021/06/07 11:02:20;;;;;;;4.40;3.05;;;20.30;84.50;;;;;;5014390;28;20068;-65
2021/06/07 11:05:05;;;;;;;2.75;2.55;;;20.40;83.90;;;;;;5017922;28;20042;-65
2021/06/07 11:07:33;;;;;;;4.10;2.67;;;20.30;83.70;;;;;;5014165;28;20061;-65
2021/06/07 11:10:14;;;;;;;2.83;2.45;;;20.00;83.80;;;;;;5013791;28;20069;-65
2021/06/07 11:12:42;;;;;;;2.92;2.60;;;19.90;85.50;;;;;;5014321;28;20069;-65
2021/06/07 11:15:15;;;;;;;2.95;2.20;;;19.90;83.40;;;;;;5016313;28;20081;-65
2021/06/07 11:17:43;;;;;;;4.50;2.60;;;20.00;84.40;;;;;;5013141;28;20138;-65
2021/06/07 11:20:11;;;;;;;3.90;2.30;;;20.10;83.40;;;;;;5014621;28;20049;-65
2021/06/07 11:23:03;;;;;;;2.25;1.60;;;20.00;85.90;;;;;;5015100;28;20549;-65
2021/06/07 11:25:39;;;;;;;3.00;2.33;;;20.20;82.10;;;;;;5013279;28;20068;-65
2021/06/07 11:28:39;;;;;;;2.00;1.90;;;20.20;83.60;;;;;;5017758;28;20041;-65
2021/06/07 11:31:26;;;;;;;2.35;2.15;;;20.30;81.20;;;;;;5015420;28;20073;-65
2021/06/07 11:33:56;;;;;;;2.75;2.03;;;20.60;82.30;;;;;;5010093;28;20081;-65
2021/06/07 11:36:37;;;;;;;3.03;2.25;;;20.90;80.80;;;;;;5015728;28;20944;-65
2021/06/07 11:39:27;;;;;;;4.35;2.13;;;20.90;81.20;;;;;;5014283;28;20365;-65
2021/06/07 11:41:59;;;;;;;3.58;1.95;;;20.90;80.20;;;;;;5015954;28;20103;-65
2021/06/07 11:44:44;;;;;;;2.33;1.88;;;21.20;80.80;;;;;;5017947;28;20158;-65
2021/06/07 11:47:20;;;;;;;4.05;1.88;;;21.20;75.40;;;;;;5020438;28;20049;-65
2021/06/07 11:49:56;;;;;;;1.95;1.67;;;21.10;77.60;;;;;;5018447;28;20123;-65
2021/06/07 11:52:32;;;;;;;5.28;2.65;;;20.80;81.30;;;;;;5019261;28;20372;-65
2021/06/07 11:55:21;;;;;;;4.65;2.25;;;21.00;82.10;;;;;;5050799;28;20053;-64
2021/06/07 11:57:50;;;;;;;2.45;2.22;;;21.30;81.40;;;;;;5017423;28;20049;-65
2021/06/07 12:00:19;;;;;;;2.67;2.00;;;21.50;79.40;;;;;;5019322;28;20080;-65
2021/06/07 12:02:46;;;;;;;4.00;3.28;;;21.70;83.30;;;;;;5020323;28;20081;-65
2021/06/07 12:05:16;;;;;;;2.28;1.90;;;21.70;76.70;;;;;;5017221;28;20045;-65
2021/06/07 12:07:46;;;;;;;3.25;1.98;;;21.70;77.00;;;;;;5017118;28;21508;-65
2021/06/07 12:10:18;;;;;;;4.93;2.10;;;21.90;78.70;;;;;;5019075;28;20138;-65
2021/06/07 12:12:45;;;;;;;7.03;3.20;;;21.80;79.00;;;;;;5018356;28;20049;-65
2021/06/07 12:15:14;;;;;;;2.20;1.90;;;22.00;75.20;;;;;;5014622;28;20065;-65
2021/06/07 12:17:49;;;;;;;1.75;1.65;;;22.20;76.30;;;;;;5015904;28;20128;-65
2021/06/07 12:20:18;;;;;;;2.70;1.50;;;22.20;73.90;;;;;;5017219;28;20104;-65
2021/06/07 12:22:50;;;;;;;3.00;2.33;;;22.20;74.10;;;;;;5017833;28;20056;-65
2021/06/07 12:28:22;;;;;;;2.33;1.55;;;22.20;75.20;;;;;;5015295;28;20053;-65
2021/06/07 12:30:52;;;;;;;1.65;1.52;;;22.30;73.80;;;;;;5018694;28;20184;-65
2021/06/07 12:33:34;;;;;;;1.50;1.40;;;22.20;72.00;;;;;;5018588;28;20141;-65
2021/06/07 12:36:04;;;;;;;1.90;1.70;;;22.00;72.40;;;;;;5016423;28;20401;-65
2021/06/07 12:38:31;;;;;;;2.22;2.05;;;22.10;73.90;;;;;;5015539;28;20053;-65
2021/06/07 12:40:59;;;;;;;3.42;2.90;;;21.90;73.70;;;;;;5019536;28;20088;-65
2021/06/07 12:43:29;;;;;;;1.42;1.33;;;21.90;76.20;;;;;;5016881;28;20749;-65
2021/06/07 12:46:00;;;;;;;2.33;1.63;;;22.30;76.90;;;;;;5016647;28;20115;-65
2021/06/07 12:48:31;;;;;;;1.60;1.50;;;22.50;75.70;;;;;;5017373;28;20049;-65
2021/06/07 12:51:02;;;;;;;1.77;1.63;;;22.50;74.50;;;;;;5019729;28;20049;-65
2021/06/07 12:53:32;;;;;;;2.25;1.70;;;22.50;72.20;;;;;;5015003;28;20053;-65
2021/06/07 12:56:05;;;;;;;1.42;1.33;;;22.60;74.40;;;;;;5017766;28;20068;-65
2021/06/07 12:58:32;;;;;;;2.22;1.85;;;22.90;74.40;;;;;;5017744;28;20523;-65
2021/06/07 13:01:02;;;;;;;2.53;1.52;;;23.10;71.80;;;;;;5017801;28;20053;-65
2021/06/07 13:03:32;;;;;;;1.98;1.70;;;22.80;69.60;;;;;;5016875;28;20119;-65
2021/06/07 13:06:14;;;;;;;6.95;1.92;;;22.80;71.30;;;;;;5018817;28;20045;-65